Time;durP1;ratioP1;P1;durP2;ratioP2;P2;SDS_P1;SDS_P2;PMS_P1;PMS_P2;Temp;Humidity;BMP_temperature;BMP_pressure;BME280_temperature;BME280_humidity;BME280_pressure;Samples;Min_cycle;Max_cycle;Signal;HPM_P1;HPM_P2
2022/07/29 00:01:21;;;;;;;1.08;0.63;;;;;;;12.57;47.92;102038.97;5002008;28;20385;-76
2022/07/29 00:03:47;;;;;;;2.10;0.20;;;;;;;12.55;47.73;102045.19;5002766;28;20037;-75
2022/07/29 00:06:13;;;;;;;2.85;0.63;;;;;;;12.48;48.38;102036.63;5021326;28;20546;-77
2022/07/29 00:08:39;;;;;;;2.05;0.30;;;;;;;12.51;48.16;102039.16;5022004;28;20087;-75
2022/07/29 00:11:04;;;;;;;2.25;0.40;;;;;;;12.46;48.47;102035.81;5003022;28;20029;-77
2022/07/29 00:13:30;;;;;;;0.50;0.20;;;;;;;12.54;48.33;102033.84;5013685;28;20299;-76
2022/07/29 00:15:55;;;;;;;1.55;0.20;;;;;;;12.47;48.65;102027.91;5021448;28;20041;-76
2022/07/29 00:18:21;;;;;;;3.03;0.28;;;;;;;12.50;48.90;102032.22;4996167;28;20188;-76
2022/07/29 00:20:46;;;;;;;2.10;0.20;;;;;;;12.47;49.14;102027.06;5017013;28;20029;-76
2022/07/29 00:23:12;;;;;;;0.88;0.38;;;;;;;12.54;48.86;102028.59;5013972;28;20060;-75
2022/07/29 00:25:37;;;;;;;1.95;0.30;;;;;;;12.53;49.31;102031.25;5014198;28;20030;-76
2022/07/29 00:28:03;;;;;;;1.10;0.40;;;;;;;12.60;49.20;102033.66;5009560;28;20047;-77
2022/07/29 00:30:28;;;;;;;2.25;0.30;;;;;;;12.55;49.55;102030.28;5015496;28;20259;-75
2022/07/29 00:32:54;;;;;;;0.77;0.20;;;;;;;12.63;49.35;102035.31;5011035;28;20168;-77
2022/07/29 00:38:03;;;;;;;1.23;0.20;;;;;;;12.68;49.19;102026.41;5025484;28;20061;-78
2022/07/29 00:40:29;;;;;;;6.82;0.25;;;;;;;12.68;49.20;102029.03;5014318;28;20611;-78
2022/07/29 00:42:54;;;;;;;2.55;0.50;;;;;;;12.57;49.50;102015.38;5013571;28;20118;-79
2022/07/29 00:45:21;;;;;;;0.40;0.20;;;;;;;12.75;49.03;102026.25;5009721;28;20052;-78
2022/07/29 00:47:47;;;;;;;0.95;0.20;;;;;;;12.73;48.91;102022.81;5012857;28;20033;-77
2022/07/29 00:50:13;;;;;;;2.30;0.30;;;;;;;12.65;49.27;102021.25;5012415;28;20034;-76
2022/07/29 00:52:40;;;;;;;3.35;0.60;;;;;;;12.62;49.65;102010.84;5011226;28;20084;-76
2022/07/29 00:55:08;;;;;;;3.38;0.52;;;;;;;12.70;49.03;102019.38;5012612;28;20034;-76
2022/07/29 00:57:34;;;;;;;0.55;0.20;;;;;;;12.79;48.59;102009.50;5015208;28;20030;-77
2022/07/29 00:59:59;;;;;;;1.63;0.20;;;;;;;12.80;48.38;102003.34;5011642;28;20044;-75
2022/07/29 01:02:25;;;;;;;1.33;0.30;;;;;;;12.76;48.52;102009.59;4999904;28;20046;-77
2022/07/29 01:04:51;;;;;;;1.20;0.30;;;;;;;12.71;48.73;102009.75;5014095;28;20164;-76
2022/07/29 01:07:17;;;;;;;1.67;0.50;;;;;;;12.71;48.57;102001.88;5002679;28;20046;-76
2022/07/29 01:09:45;;;;;;;1.52;0.17;;;;;;;12.83;48.57;101998.88;5001448;28;20044;-77
2022/07/29 01:12:17;;;;;;;1.27;0.28;;;;;;;12.84;48.57;102002.34;5013900;28;20049;-76
2022/07/29 01:14:43;;;;;;;0.77;0.20;;;;;;;12.82;48.27;101991.91;5010807;28;20053;-76
2022/07/29 01:17:13;;;;;;;2.83;0.47;;;;;;;12.77;48.53;101988.56;5001936;28;20039;-76
2022/07/29 01:19:51;;;;;;;2.75;0.30;;;;;;;12.75;48.63;101984.28;5000739;28;20041;-78
2022/07/29 01:22:28;;;;;;;3.85;0.38;;;;;;;12.65;48.67;101984.53;4997518;28;20534;-77
2022/07/29 01:25:09;;;;;;;3.08;0.38;;;;;;;12.66;49.14;101986.25;5013022;28;20037;-77
2022/07/29 01:27:57;;;;;;;2.70;0.32;;;;;;;12.65;49.07;101976.66;5013198;28;20133;-77
2022/07/29 01:30:25;;;;;;;2.97;0.50;;;;;;;12.44;49.47;101974.69;5003742;28;20095;-76
2022/07/29 01:32:56;;;;;;;1.40;0.40;;;;;;;12.63;49.20;101970.59;5013871;28;20045;-76
2022/07/29 01:35:36;;;;;;;4.28;0.30;;;;;;;12.58;49.11;101969.91;5015740;28;20033;-77
2022/07/29 01:38:12;;;;;;;1.92;0.50;;;;;;;12.66;49.25;101965.25;5012110;28;20512;-77
2022/07/29 01:40:47;;;;;;;4.25;1.23;;;;;;;12.59;49.23;101963.75;5014560;28;20040;-76
2022/07/29 01:43:18;;;;;;;1.20;0.20;;;;;;;12.64;49.48;101959.19;5012885;28;20049;-77
2022/07/29 01:45:50;;;;;;;2.38;0.35;;;;;;;12.73;48.85;101959.84;5001885;28;20029;-77
2022/07/29 01:49:00;;;;;;;2.33;0.30;;;;;;;12.77;48.58;101957.09;4996461;28;20139;-76
2022/07/29 01:51:32;;;;;;;1.88;0.40;;;;;;;12.76;48.31;101944.88;4957353;28;20038;-77
2022/07/29 01:54:14;;;;;;;3.33;0.40;;;;;;;12.84;48.24;101950.72;5008987;28;20052;-76
2022/07/29 01:56:42;;;;;;;;;;;;;;;12.75;48.69;101943.16;5015429;28;20087;-77
2022/07/29 01:59:10;;;;;;;2.33;0.50;;;;;;;12.70;48.63;101951.19;5019025;28;20283;-77
2022/07/29 02:01:37;;;;;;;1.90;0.20;;;;;;;12.78;48.58;101943.09;5013274;28;20025;-76
2022/07/29 02:04:05;;;;;;;1.90;0.70;;;;;;;12.67;49.05;101938.13;5013067;28;20030;-76
2022/07/29 02:06:33;;;;;;;4.53;1.15;;;;;;;12.77;48.40;101936.09;4997797;28;20034;-76
2022/07/29 02:08:59;;;;;;;4.50;0.47;;;;;;;12.73;48.74;101934.47;5011457;28;20052;-77
2022/07/29 02:11:25;;;;;;;2.15;0.30;;;;;;;12.75;48.66;101931.81;5014879;28;20815;-77
2022/07/29 02:13:54;;;;;;;5.00;0.60;;;;;;;12.67;48.89;101929.41;5013274;28;20037;-76
2022/07/29 02:16:22;;;;;;;1.73;0.50;;;;;;;12.54;49.26;101928.09;5004866;28;20029;-76
2022/07/29 02:18:50;;;;;;;3.10;0.45;;;;;;;12.67;48.63;101922.41;4998363;28;20638;-77
2022/07/29 02:21:22;;;;;;;1.63;0.25;;;;;;;12.64;49.00;101919.00;5020530;28;20120;-78
2022/07/29 02:23:51;;;;;;;0.93;0.30;;;;;;;12.72;48.56;101921.44;5011584;28;20088;-78
2022/07/29 02:26:19;;;;;;;3.55;0.50;;;;;;;12.64;49.07;101919.84;5002719;28;20492;-78
2022/07/29 02:28:47;;;;;;;1.02;0.38;;;;;;;12.64;48.97;101911.13;5013077;28;20038;-77
2022/07/29 02:31:14;;;;;;;0.75;0.30;;;;;;;12.47;49.52;101922.19;5015462;28;20045;-78
2022/07/29 02:33:41;;;;;;;2.83;0.50;;;;;;;12.63;49.02;101912.91;5010650;28;20046;-78
2022/07/29 02:36:07;;;;;;;3.83;0.50;;;;;;;12.46;49.53;101909.97;5028507;28;20033;-78
2022/07/29 02:38:50;;;;;;;5.20;0.50;;;;;;;12.58;49.02;101906.09;5012238;28;20045;-77
2022/07/29 02:41:43;;;;;;;0.60;0.28;;;;;;;12.42;49.64;101908.34;5018991;28;20449;-76
2022/07/29 02:44:12;;;;;;;4.40;0.45;;;;;;;12.57;49.12;101910.47;5009629;28;20044;-76
2022/07/29 02:46:43;;;;;;;4.05;0.40;;;;;;;12.59;49.10;101913.91;4989716;28;20172;-77
2022/07/29 02:49:13;;;;;;;2.00;0.27;;;;;;;12.70;48.83;101919.69;5011476;28;20038;-76
2022/07/29 02:51:54;;;;;;;3.05;0.50;;;;;;;12.55;49.19;101920.16;5014445;28;20279;-77
2022/07/29 02:54:38;;;;;;;3.70;0.60;;;;;;;12.61;48.96;101912.09;4998532;28;20026;-76
2022/07/29 02:57:20;;;;;;;3.70;0.60;;;;;;;12.62;48.89;101918.19;5009131;28;20045;-75
2022/07/29 02:59:49;;;;;;;4.05;0.52;;;;;;;12.59;49.12;101920.94;4990224;28;20821;-76
2022/07/29 03:02:16;;;;;;;1.23;0.40;;;;;;;12.52;49.23;101922.88;5026164;28;20585;-77
2022/07/29 03:04:43;;;;;;;1.75;0.28;;;;;;;12.44;49.37;101917.88;4998383;28;20175;-76
2022/07/29 03:07:10;;;;;;;4.00;1.20;;;;;;;12.50;49.24;101919.44;5005328;28;20090;-76
2022/07/29 03:09:36;;;;;;;2.05;0.30;;;;;;;12.47;49.33;101907.31;5010667;28;20029;-78
2022/07/29 03:12:03;;;;;;;1.85;0.20;;;;;;;12.38;49.72;101906.72;5007547;28;20053;-77
2022/07/29 03:14:30;;;;;;;0.77;0.40;;;;;;;12.38;49.64;101906.72;5013826;28;20156;-77
2022/07/29 03:16:57;;;;;;;2.08;0.50;;;;;;;12.43;49.36;101904.81;5007965;28;20049;-77
2022/07/29 03:19:23;;;;;;;5.72;0.70;;;;;;;12.32;49.82;101899.91;5007414;28;20717;-75
2022/07/29 03:21:49;;;;;;;2.83;0.60;;;;;;;12.35;49.74;101901.56;5003676;28;20034;-76
2022/07/29 03:24:44;;;;;;;2.08;0.40;;;;;;;12.42;49.51;101903.09;5001364;28;20036;-77
2022/07/29 03:27:09;;;;;;;1.98;0.35;;;;;;;12.52;49.05;101903.69;5000060;28;20037;-76
2022/07/29 03:29:35;;;;;;;3.40;0.70;;;;;;;12.59;48.96;101906.03;5001204;28;20056;-77
2022/07/29 03:32:05;;;;;;;3.40;0.40;;;;;;;12.63;48.83;101899.78;5023590;28;20053;-77
2022/07/29 03:34:30;;;;;;;1.38;0.50;;;;;;;12.66;48.71;101904.94;4989479;28;20033;-77
2022/07/29 03:36:56;;;;;;;1.70;0.80;;;;;;;12.65;48.49;101900.59;5024727;28;20069;-78
2022/07/29 03:39:25;;;;;;;3.42;1.25;;;;;;;12.60;49.03;101891.16;4999978;28;20438;-77
2022/07/29 03:41:54;;;;;;;2.17;0.95;;;;;;;12.53;48.68;101901.00;5008782;28;20057;-77
2022/07/29 03:44:21;;;;;;;3.67;0.50;;;;;;;12.53;48.67;101893.13;5015516;28;20037;-77
2022/07/29 03:46:50;;;;;;;4.03;0.60;;;;;;;12.59;48.71;101894.69;5007904;28;20041;-77
2022/07/29 03:49:17;;;;;;;1.20;0.32;;;;;;;12.62;48.69;101889.34;5017737;28;20033;-77
2022/07/29 03:51:43;;;;;;;5.72;0.43;;;;;;;12.55;48.58;101885.22;5015936;28;20036;-76
2022/07/29 03:54:09;;;;;;;7.07;0.52;;;;;;;12.60;48.45;101889.41;5013643;28;20030;-79
2022/07/29 03:56:39;;;;;;;3.60;0.50;;;;;;;12.61;48.32;101885.88;5010727;28;20508;-77
2022/07/29 03:59:06;;;;;;;4.93;0.43;;;;;;;12.61;48.54;101888.50;5015413;28;20030;-78
2022/07/29 04:01:33;;;;;;;5.93;0.40;;;;;;;12.56;48.58;101877.31;5017849;28;20479;-78
2022/07/29 04:04:00;;;;;;;1.58;0.90;;;;;;;12.58;48.51;101878.13;5005576;28;20029;-78
2022/07/29 04:06:26;;;;;;;2.47;0.70;;;;;;;12.80;47.85;101877.41;5007283;28;20037;-77
2022/07/29 04:08:51;;;;;;;5.85;0.38;;;;;;;12.85;47.94;101886.03;5008243;28;20054;-76
2022/07/29 04:11:17;;;;;;;2.92;0.60;;;;;;;12.87;47.87;101884.16;5025863;28;20034;-76
2022/07/29 04:13:43;;;;;;;1.67;0.32;;;;;;;12.87;48.00;101887.69;5009546;28;20076;-78
2022/07/29 04:16:08;;;;;;;1.52;0.45;;;;;;;12.89;47.44;101880.63;4994358;28;20144;-77
2022/07/29 04:18:34;;;;;;;3.03;0.60;;;;;;;12.70;48.29;101877.72;5008250;28;20109;-76
2022/07/29 04:21:00;;;;;;;1.88;0.80;;;;;;;12.76;48.21;101870.56;4994058;28;20156;-75
2022/07/29 04:23:35;;;;;;;1.35;0.40;;;;;;;12.73;48.55;101868.06;4998376;28;20042;-76
2022/07/29 04:26:00;;;;;;;2.72;0.55;;;;;;;12.66;48.42;101867.34;5009053;28;20037;-77
2022/07/29 04:28:26;;;;;;;0.85;0.40;;;;;;;12.79;48.51;101865.22;5014368;28;20050;-76
2022/07/29 04:30:52;;;;;;;1.40;0.40;;;;;;;12.89;48.29;101872.75;5013904;28;20044;-76
2022/07/29 04:33:17;;;;;;;6.88;0.85;;;;;;;12.98;48.05;101873.31;5013205;28;20060;-76
2022/07/29 04:35:43;;;;;;;2.47;0.22;;;;;;;13.08;47.46;101862.44;4991896;28;20116;-76
2022/07/29 04:38:08;;;;;;;7.07;0.75;;;;;;;13.05;47.79;101870.44;5008390;28;20068;-77
2022/07/29 04:40:34;;;;;;;0.95;0.35;;;;;;;13.18;47.69;101870.00;5014626;28;20515;-77
2022/07/29 04:43:00;;;;;;;5.82;0.50;;;;;;;13.28;47.15;101879.28;4992804;28;20128;-77
2022/07/29 04:45:27;;;;;;;4.28;0.40;;;;;;;13.21;47.38;101878.63;5011077;28;20033;-77
2022/07/29 04:47:53;;;;;;;1.15;0.50;;;;;;;13.05;47.51;101883.56;5009595;28;20053;-77
2022/07/29 04:50:19;;;;;;;3.85;0.45;;;;;;;13.19;46.82;101872.59;5010402;28;20369;-75
2022/07/29 04:52:44;;;;;;;3.08;0.50;;;;;;;13.38;46.07;101870.13;5006620;28;20444;-77
2022/07/29 04:55:10;;;;;;;6.72;0.35;;;;;;;13.40;46.09;101870.09;5009253;28;20022;-76
2022/07/29 04:57:35;;;;;;;1.85;0.30;;;;;;;13.45;45.75;101863.78;5008227;28;20492;-77
2022/07/29 05:00:02;;;;;;;1.35;0.30;;;;;;;13.40;46.06;101878.81;5014165;28;20033;-77
2022/07/29 05:02:28;;;;;;;3.42;0.60;;;;;;;13.55;45.83;101869.53;5004402;28;20037;-76
2022/07/29 05:04:53;;;;;;;0.80;0.28;;;;;;;13.60;45.35;101877.28;5019911;28;20419;-76
2022/07/29 05:07:19;;;;;;;4.78;0.90;;;;;;;13.69;45.50;101869.91;5032436;28;20069;-77
2022/07/29 05:09:44;;;;;;;6.03;0.80;;;;;;;13.68;45.11;101875.25;5020639;28;20033;-77
2022/07/29 05:12:10;;;;;;;5.68;0.50;;;;;;;13.75;44.94;101870.63;5011838;28;20306;-77
2022/07/29 05:14:36;;;;;;;4.20;0.40;;;;;;;13.79;44.94;101870.44;5004315;28;20542;-76
2022/07/29 05:17:01;;;;;;;3.92;0.40;;;;;;;13.71;44.76;101868.09;4985416;28;20055;-76
2022/07/29 05:19:27;;;;;;;4.75;0.50;;;;;;;13.79;44.87;101874.84;5021458;28;20024;-76
2022/07/29 05:21:52;;;;;;;0.98;0.28;;;;;;;13.91;44.19;101874.38;5002868;28;20052;-76
2022/07/29 05:24:17;;;;;;;1.88;0.32;;;;;;;13.83;44.79;101872.03;5017676;28;20036;-77
2022/07/29 05:26:43;;;;;;;2.90;0.70;;;;;;;13.77;44.46;101864.38;5021324;28;20506;-77
2022/07/29 05:29:09;;;;;;;7.00;0.57;;;;;;;13.87;44.33;101868.34;5019329;28;20033;-77
2022/07/29 05:31:34;;;;;;;2.88;0.40;;;;;;;13.96;44.36;101871.56;5012950;28;20029;-76
2022/07/29 05:34:00;;;;;;;3.42;0.50;;;;;;;14.03;44.25;101865.13;5017848;28;20039;-76
2022/07/29 05:36:26;;;;;;;2.72;0.40;;;;;;;14.02;44.15;101872.19;5005381;28;20037;-76
2022/07/29 05:38:51;;;;;;;2.78;1.10;;;;;;;13.96;44.23;101877.66;4994954;28;20155;-76
2022/07/29 05:41:18;;;;;;;5.18;0.35;;;;;;;14.16;44.25;101876.88;5020151;28;20037;-76
2022/07/29 05:43:43;;;;;;;8.63;0.85;;;;;;;14.25;43.89;101867.78;5002378;28;20736;-76
2022/07/29 05:46:09;;;;;;;7.75;0.55;;;;;;;14.34;44.13;101873.56;5022470;28;20104;-75
2022/07/29 05:48:34;;;;;;;5.25;0.65;;;;;;;14.36;44.09;101870.84;5020226;28;20800;-77
2022/07/29 05:51:00;;;;;;;7.22;0.60;;;;;;;14.23;44.46;101874.88;5020429;28;20029;-77
2022/07/29 05:53:25;;;;;;;3.88;0.32;;;;;;;14.40;44.00;101876.84;4998310;28;20033;-76
2022/07/29 05:55:51;;;;;;;2.38;0.45;;;;;;;14.44;44.11;101878.47;5021616;28;20030;-76
2022/07/29 05:58:17;;;;;;;2.15;0.73;;;;;;;14.51;44.06;101883.41;5022520;28;20095;-76
2022/07/29 06:00:44;;;;;;;3.08;0.40;;;;;;;14.58;43.88;101876.13;5005948;28;20041;-77
2022/07/29 06:03:09;;;;;;;2.28;0.50;;;;;;;14.58;43.62;101873.50;5017777;28;20083;-76
2022/07/29 06:05:35;;;;;;;2.15;0.47;;;;;;;14.85;43.48;101873.25;5016546;28;20030;-76
2022/07/29 06:08:00;;;;;;;1.83;0.80;;;;;;;15.13;42.94;101873.78;5019236;28;20044;-77
2022/07/29 06:10:26;;;;;;;2.67;0.60;;;;;;;15.35;42.33;101880.78;5000907;28;20045;-77
2022/07/29 06:12:52;;;;;;;3.15;0.60;;;;;;;15.53;41.64;101879.97;5018417;28;20057;-76
2022/07/29 06:15:17;;;;;;;2.50;0.50;;;;;;;15.52;41.88;101878.25;5018715;28;20686;-77
2022/07/29 06:17:43;;;;;;;5.65;0.60;;;;;;;15.43;41.74;101881.28;5019164;28;20052;-77
2022/07/29 06:20:09;;;;;;;3.65;0.52;;;;;;;15.45;41.54;101879.44;5021242;28;20029;-76
2022/07/29 06:22:35;;;;;;;4.22;0.40;;;;;;;15.66;40.98;101880.28;5011239;28;20584;-77
2022/07/29 06:25:02;;;;;;;3.58;0.77;;;;;;;15.67;41.34;101878.47;5019143;28;20037;-78
2022/07/29 06:27:27;;;;;;;2.42;0.60;;;;;;;15.86;40.84;101879.31;5032532;28;20051;-77
2022/07/29 06:29:53;;;;;;;4.07;0.70;;;;;;;15.91;41.14;101880.00;5013979;28;20067;-76
2022/07/29 06:32:19;;;;;;;5.68;0.73;;;;;;;16.02;40.86;101878.63;5025990;28;20037;-76
2022/07/29 06:34:44;;;;;;;5.47;0.60;;;;;;;16.41;39.79;101870.59;5012532;28;20044;-78
2022/07/29 06:37:10;;;;;;;6.70;0.90;;;;;;;16.71;39.73;101870.88;5033029;28;20508;-77
2022/07/29 06:39:36;;;;;;;3.83;0.55;;;;;;;17.16;38.72;101873.91;5017225;28;20112;-76
2022/07/29 06:42:05;;;;;;;7.75;0.60;;;;;;;17.53;37.38;101878.13;5009576;28;20041;-77
2022/07/29 06:44:33;;;;;;;6.78;0.82;;;;;;;18.16;36.57;101868.50;4997844;28;20061;-77
2022/07/29 06:46:58;;;;;;;3.28;0.57;;;;;;;18.58;35.92;101869.66;4980508;28;20068;-78
2022/07/29 06:49:25;;;;;;;4.03;0.68;;;;;;;18.56;35.42;101858.31;5003856;28;20087;-76
2022/07/29 06:51:51;;;;;;;6.05;0.47;;;;;;;18.16;36.75;101861.44;5001870;28;20411;-76
2022/07/29 06:54:16;;;;;;;4.00;1.02;;;;;;;17.60;36.98;101863.66;5017721;28;20678;-77
2022/07/29 06:56:43;;;;;;;5.53;1.20;;;;;;;17.28;38.64;101872.41;5015083;28;20056;-77
2022/07/29 06:59:09;;;;;;;4.53;0.85;;;;;;;17.20;38.51;101860.47;5022053;28;20558;-77
2022/07/29 07:01:37;;;;;;;7.32;1.00;;;;;;;16.81;38.65;101863.38;5020143;28;20029;-77
2022/07/29 07:04:03;;;;;;;4.13;0.52;;;;;;;16.57;39.23;101860.13;5002310;28;20037;-77
2022/07/29 07:06:28;;;;;;;3.05;1.30;;;;;;;16.73;39.78;101860.22;5014065;28;20064;-76
2022/07/29 07:08:54;;;;;;;4.15;0.95;;;;;;;16.61;39.75;101866.97;5026214;28;20069;-78
2022/07/29 07:11:19;;;;;;;1.45;0.52;;;;;;;16.46;40.08;101867.72;5015410;28;21012;-76
2022/07/29 07:13:45;;;;;;;1.40;0.70;;;;;;;16.57;39.47;101873.34;5015106;28;20539;-78
2022/07/29 07:16:11;;;;;;;4.63;1.30;;;;;;;16.54;39.87;101876.13;5019868;28;20086;-77
2022/07/29 07:18:36;;;;;;;4.10;0.77;;;;;;;16.90;39.87;101872.59;5011674;28;20072;-77
2022/07/29 07:21:02;;;;;;;4.35;0.80;;;;;;;16.93;39.26;101867.16;5012081;28;20039;-76
2022/07/29 07:23:27;;;;;;;3.15;0.93;;;;;;;17.11;38.98;101873.28;5001319;28;20045;-77
2022/07/29 07:25:53;;;;;;;1.98;1.20;;;;;;;17.34;39.53;101867.66;5001753;28;20426;-77
2022/07/29 07:28:19;;;;;;;2.85;0.88;;;;;;;17.72;38.80;101856.84;5015519;28;20045;-80
2022/07/29 07:30:45;;;;;;;10.18;1.33;;;;;;;17.98;36.53;101857.16;5014787;28;20067;-78
2022/07/29 07:33:11;;;;;;;8.02;0.63;;;;;;;18.10;36.62;101858.28;5014490;28;20029;-78
2022/07/29 07:35:36;;;;;;;11.27;3.03;;;;;;;17.92;36.75;101863.66;5029617;28;20402;-78
2022/07/29 07:38:02;;;;;;;3.78;0.68;;;;;;;18.24;37.28;101866.31;5011143;28;20041;-77
2022/07/29 07:40:28;;;;;;;1.83;0.70;;;;;;;18.22;36.29;101866.41;5028492;28;20033;-78
2022/07/29 07:42:53;;;;;;;8.27;1.40;;;;;;;17.95;36.82;101873.22;5026544;28;20037;-79
2022/07/29 07:45:19;;;;;;;3.95;1.27;;;;;;;17.83;37.27;101869.47;5016088;28;20036;-75
2022/07/29 07:47:44;;;;;;;2.50;1.13;;;;;;;18.16;36.86;101873.78;5004712;28;20042;-78
2022/07/29 07:50:13;;;;;;;3.83;0.50;;;;;;;18.13;36.84;101871.34;5001150;28;20496;-78
2022/07/29 07:52:50;;;;;;;3.58;1.10;;;;;;;18.12;37.09;101869.59;4978062;28;20044;-77
2022/07/29 07:55:16;;;;;;;4.30;1.52;;;;;;;18.22;37.54;101876.13;5008080;28;20677;-78
2022/07/29 07:57:42;;;;;;;6.22;0.93;;;;;;;18.53;36.70;101875.22;5014897;28;20380;-77
2022/07/29 08:00:09;;;;;;;1.85;0.55;;;;;;;18.95;36.21;101864.88;5001044;28;20094;-77
2022/07/29 08:02:38;;;;;;;4.07;0.88;;;;;;;19.23;35.74;101870.22;5028312;28;20132;-79
2022/07/29 08:05:05;;;;;;;2.08;0.88;;;;;;;19.47;35.17;101861.69;5003814;28;20479;-78
2022/07/29 08:07:30;;;;;;;2.47;0.90;;;;;;;19.51;34.01;101861.38;5028037;28;20562;-78
2022/07/29 08:09:56;;;;;;;3.22;1.45;;;;;;;19.33;35.12;101864.34;5001790;28;20033;-77
2022/07/29 08:12:21;;;;;;;4.07;0.88;;;;;;;19.54;36.06;101856.84;5015342;28;20037;-76
2022/07/29 08:14:47;;;;;;;5.15;1.38;;;;;;;20.34;33.65;101857.91;4998556;28;20041;-78
2022/07/29 08:17:12;;;;;;;2.40;0.90;;;;;;;22.20;31.12;101852.09;5018417;28;20055;-78
2022/07/29 08:19:38;;;;;;;3.22;0.90;;;;;;;23.16;29.58;101855.41;5018409;28;20025;-78
2022/07/29 08:22:03;;;;;;;1.58;0.65;;;;;;;22.46;29.40;101856.31;5015788;28;20560;-79
2022/07/29 08:24:46;;;;;;;2.97;0.98;;;;;;;21.81;31.25;101846.91;5010387;28;20030;-78
2022/07/29 08:27:13;;;;;;;2.72;1.02;;;;;;;21.82;31.61;101851.25;5010123;28;20459;-78
2022/07/29 08:29:39;;;;;;;2.40;1.00;;;;;;;22.20;31.29;101857.41;4992385;28;20073;-77
2022/07/29 08:32:05;;;;;;;2.13;0.82;;;;;;;22.48;30.10;101858.88;4993559;28;20156;-78
2022/07/29 08:34:31;;;;;;;6.60;1.13;;;;;;;22.78;29.56;101847.69;5022867;28;20120;-77
2022/07/29 08:36:57;;;;;;;2.47;0.77;;;;;;;23.74;29.37;101860.56;5006944;28;21701;-77
2022/07/29 08:39:24;;;;;;;1.88;1.13;;;;;;;24.46;27.67;101853.84;5010469;28;20064;-78
2022/07/29 08:41:50;;;;;;;3.10;0.88;;;;;;;25.13;26.26;101854.41;5005481;28;20041;-77
2022/07/29 08:44:17;;;;;;;3.50;0.63;;;;;;;24.30;27.21;101858.75;5008016;28;20034;-75
2022/07/29 08:46:42;;;;;;;6.70;0.60;;;;;;;23.57;29.10;101861.94;5006079;28;20636;-78
2022/07/29 08:49:08;;;;;;;2.72;0.55;;;;;;;23.91;28.69;101855.75;5004586;28;20042;-76
2022/07/29 08:51:35;;;;;;;2.58;0.40;;;;;;;23.95;28.30;101859.84;5013656;28;20120;-77
2022/07/29 08:54:02;;;;;;;1.63;0.50;;;;;;;24.08;27.66;101859.66;4995226;28;20029;-76
2022/07/29 08:56:28;;;;;;;1.33;0.50;;;;;;;25.14;28.14;101858.78;5009237;28;20387;-77
2022/07/29 08:58:57;;;;;;;4.82;0.90;;;;;;;26.49;24.85;101852.00;5007575;28;20147;-76
2022/07/29 09:01:25;;;;;;;2.58;0.85;;;;;;;28.02;22.25;101851.69;5025734;28;20121;-76
2022/07/29 09:03:56;;;;;;;4.55;0.82;;;;;;;30.47;20.19;101840.38;4999397;28;20470;-75
2022/07/29 09:06:25;;;;;;;3.45;1.27;;;;;;;31.16;18.89;101846.97;5016070;28;20086;-74
2022/07/29 09:08:51;;;;;;;2.70;0.60;;;;;;;29.87;19.93;101841.50;5011449;28;20052;-75
2022/07/29 09:11:17;;;;;;;2.47;0.45;;;;;;;29.42;20.64;101843.56;5000143;28;20030;-76
2022/07/29 09:13:42;;;;;;;2.53;0.70;;;;;;;29.02;21.76;101845.06;5004869;28;20126;-75
2022/07/29 09:16:09;;;;;;;2.47;0.80;;;;;;;27.37;22.00;101846.44;5006723;28;20030;-76
2022/07/29 09:18:36;;;;;;;4.53;0.80;;;;;;;26.38;24.20;101838.75;4992101;28;20514;-74
2022/07/29 09:24:08;;;;;;;4.72;0.80;;;;;;;27.33;22.25;101840.50;5004628;28;20045;-75
2022/07/29 09:26:43;;;;;;;2.55;0.75;;;;;;;26.73;23.92;101842.69;5005136;28;20121;-74
2022/07/29 09:29:10;;;;;;;3.22;0.65;;;;;;;26.00;24.54;101845.78;5025094;28;20247;-75
2022/07/29 09:31:40;;;;;;;3.00;0.93;;;;;;;25.37;24.71;101846.88;4995895;28;20034;-76
2022/07/29 09:34:07;;;;;;;4.88;0.90;;;;;;;24.41;26.11;101845.31;5007203;28;20030;-76
2022/07/29 09:36:45;;;;;;;1.50;0.70;;;;;;;23.87;27.46;101851.63;5011845;28;20042;-76
2022/07/29 09:39:11;;;;;;;6.45;0.85;;;;;;;23.52;28.16;101847.28;5014934;28;20034;-76
2022/07/29 09:41:47;;;;;;;3.15;0.57;;;;;;;23.20;28.66;101859.50;5024308;28;20076;-76
2022/07/29 09:44:12;;;;;;;4.82;0.85;;;;;;;22.86;29.24;101849.78;5025236;28;20030;-75
2022/07/29 09:46:38;;;;;;;3.47;0.80;;;;;;;23.00;29.30;101853.06;5012329;28;20095;-75
2022/07/29 09:49:11;;;;;;;2.45;0.88;;;;;;;22.91;29.25;101850.28;5014933;28;20566;-75
2022/07/29 09:51:37;;;;;;;5.38;0.80;;;;;;;22.60;29.50;101844.59;5012526;28;20029;-75
2022/07/29 09:54:22;;;;;;;8.70;0.55;;;;;;;22.73;29.20;101844.56;4996206;28;20025;-75
2022/07/29 09:56:48;;;;;;;2.67;0.65;;;;;;;22.93;29.10;101841.19;5027247;28;20638;-76
2022/07/29 09:59:13;;;;;;;2.65;1.48;;;;;;;23.10;28.93;101841.69;5025299;28;20199;-75
2022/07/29 10:01:39;;;;;;;3.20;1.05;;;;;;;23.09;29.45;101840.00;5012277;28;20072;-75
2022/07/29 10:04:05;;;;;;;1.30;0.35;;;;;;;22.73;31.02;101836.56;4996706;28;20463;-76
2022/07/29 10:06:31;;;;;;;7.95;0.40;;;;;;;22.54;31.61;101829.09;5013491;28;20037;-77
2022/07/29 10:09:11;;;;;;;3.10;1.00;;;;;;;22.43;31.89;101837.03;5015052;28;20040;-76
2022/07/29 10:11:37;;;;;;;3.05;0.47;;;;;;;22.12;32.27;101844.69;5026477;28;20489;-76
2022/07/29 10:14:04;;;;;;;4.72;0.77;;;;;;;22.09;32.30;101836.91;5014384;28;20073;-75
2022/07/29 10:16:32;;;;;;;3.58;0.82;;;;;;;22.30;31.87;101837.97;5020189;28;20381;-77
2022/07/29 10:19:01;;;;;;;4.85;0.85;;;;;;;22.40;31.99;101835.47;5014110;28;20041;-75
2022/07/29 10:21:27;;;;;;;3.55;1.15;;;;;;;22.14;32.69;101843.59;5017803;28;20033;-74
2022/07/29 10:23:53;;;;;;;2.05;0.70;;;;;;;22.29;32.06;101836.28;5015063;28;20716;-76
2022/07/29 10:26:20;;;;;;;2.88;0.70;;;;;;;22.31;32.33;101833.50;5003298;28;20044;-74
2022/07/29 10:28:45;;;;;;;3.38;1.40;;;;;;;22.84;31.09;101831.25;5014366;28;20053;-77
2022/07/29 10:31:26;;;;;;;4.80;0.70;;;;;;;23.00;30.39;101837.06;5016040;28;20531;-77
2022/07/29 10:34:14;;;;;;;2.72;1.48;;;;;;;23.19;29.84;101835.66;5016086;28;20115;-74
2022/07/29 10:36:51;;;;;;;3.15;0.93;;;;;;;23.15;30.46;101832.34;5014417;28;20036;-76
2022/07/29 10:39:44;;;;;;;3.15;0.80;;;;;;;23.53;29.27;101832.97;5027247;28;20442;-77
2022/07/29 10:42:24;;;;;;;3.15;0.60;;;;;;;23.41;29.77;101835.66;5012571;28;20639;-75
2022/07/29 10:44:51;;;;;;;2.60;0.70;;;;;;;23.56;29.71;101827.38;5019904;28;20029;-76
2022/07/29 10:47:24;;;;;;;2.28;0.82;;;;;;;23.54;30.29;101829.31;5015243;28;20281;-77
2022/07/29 10:49:57;;;;;;;1.73;0.60;;;;;;;23.64;29.91;101827.63;5029708;28;20465;-78
2022/07/29 10:52:24;;;;;;;4.43;1.10;;;;;;;23.69;29.48;101822.75;5015518;28;20092;-75
2022/07/29 10:54:51;;;;;;;3.45;0.40;;;;;;;23.96;30.27;101824.16;4998660;28;20132;-74
2022/07/29 10:57:24;;;;;;;5.35;1.20;;;;;;;24.05;30.35;101822.56;5029419;28;20483;-76
2022/07/29 11:00:08;;;;;;;3.20;0.95;;;;;;;24.03;29.54;101818.19;5028301;28;20053;-76
2022/07/29 11:02:35;;;;;;;4.88;0.80;;;;;;;23.87;29.42;101816.91;5014312;28;20064;-77
2022/07/29 11:05:06;;;;;;;6.05;0.70;;;;;;;23.99;29.13;101818.56;5019349;28;20570;-76
2022/07/29 11:07:35;;;;;;;1.42;0.75;;;;;;;23.66;29.77;101820.34;4995144;28;20049;-76
2022/07/29 11:10:13;;;;;;;3.45;1.02;;;;;;;23.83;28.94;101818.94;5012913;28;20033;-76
2022/07/29 11:12:38;;;;;;;1.88;0.80;;;;;;;23.87;29.74;101822.25;5014996;28;20037;-77
2022/07/29 11:15:07;;;;;;;2.17;0.47;;;;;;;23.94;29.33;101816.25;5014524;28;20513;-78
2022/07/29 11:17:52;;;;;;;4.90;1.00;;;;;;;24.06;28.24;101819.75;5029317;28;20577;-76
2022/07/29 11:20:49;;;;;;;5.82;0.90;;;;;;;24.18;28.72;101808.03;5013330;28;20065;-76
2022/07/29 11:23:29;;;;;;;5.00;0.73;;;;;;;24.53;28.11;101809.59;5009440;28;20060;-76
2022/07/29 11:26:20;;;;;;;3.28;0.73;;;;;;;24.59;28.15;101805.53;5009978;28;20037;-75
2022/07/29 11:28:50;;;;;;;4.55;0.50;;;;;;;24.46;27.78;101803.09;5001051;28;20056;-76
2022/07/29 11:31:43;;;;;;;2.70;0.47;;;;;;;24.80;27.86;101801.03;5019785;28;20044;-77
2022/07/29 11:34:29;;;;;;;2.70;0.60;;;;;;;24.57;27.56;101795.00;5011070;28;20068;-77
2022/07/29 11:37:06;;;;;;;3.65;0.57;;;;;;;24.95;27.06;101790.84;5025300;28;20056;-76